Time;durP1;ratioP1;P1;durP2;ratioP2;P2;SDS_P1;SDS_P2;PMS_P1;PMS_P2;Temp;Humidity;BMP_temperature;BMP_pressure;BME280_temperature;BME280_humidity;BME280_pressure;Samples;Min_cycle;Max_cycle;Signal;HPM_P1;HPM_P2
2023/10/25 00:02:18;;;;;;;6.93;3.20;;;;;;;;;;5017020;28;20056;-62
2023/10/25 00:05:06;;;;;;;5.78;3.67;;;;;;;;;;5015474;28;20041;-63
2023/10/25 00:08:00;;;;;;;4.47;2.90;;;;;;;;;;5012570;28;20434;-63
2023/10/25 00:10:47;;;;;;;6.25;3.38;;;;;;;;;;5014379;28;20161;-63
2023/10/25 00:13:41;;;;;;;6.53;3.42;;;;;;;;;;5012102;28;20061;-63
2023/10/25 00:16:28;;;;;;;6.25;3.72;;;;;;;;;;5015968;28;20069;-52
2023/10/25 00:19:22;;;;;;;7.38;2.90;;;;;;;;;;5014187;28;20056;-63
2023/10/25 00:22:16;;;;;;;10.60;3.47;;;;;;;;;;5012849;28;20057;-63
2023/10/25 00:25:03;;;;;;;5.68;3.65;;;;;;;;;;5012612;28;20053;-62
2023/10/25 00:27:57;;;;;;;4.93;3.30;;;;;;;;;;5013165;28;20064;-63
2023/10/25 00:30:44;;;;;;;7.07;3.13;;;;;;;;;;5014136;28;20057;-63
2023/10/25 00:33:38;;;;;;;6.95;3.78;;;;;;;;;;5012650;28;20056;-60
2023/10/25 00:36:25;;;;;;;6.93;3.55;;;;;;;;;;5015473;28;20060;-60
2023/10/25 00:39:19;;;;;;;6.03;3.20;;;;;;;;;;5014021;28;20050;-60
2023/10/25 00:42:07;;;;;;;6.23;3.83;;;;;;;;;;5013443;28;20053;-60
2023/10/25 00:45:01;;;;;;;5.85;3.65;;;;;;;;;;5015034;28;20056;-60
2023/10/25 00:47:48;;;;;;;7.45;3.08;;;;;;;;;;5014874;28;20057;-61
2023/10/25 00:50:42;;;;;;;10.13;3.92;;;;;;;;;;5014476;28;20061;-60
2023/10/25 00:53:31;;;;;;;5.75;3.90;;;;;;;;;;5010031;28;20061;-63
2023/10/25 00:56:39;;;;;;;6.95;3.40;;;;;;;;;;5013167;28;20119;-56
2023/10/25 00:59:34;;;;;;;6.05;3.45;;;;;;;;;;5010986;28;20053;-51
2023/10/25 01:02:28;;;;;;;6.03;3.85;;;;;;;;;;5011618;28;20103;-53
2023/10/25 01:05:15;;;;;;;6.63;3.75;;;;;;;;;;5015804;28;20056;-51
2023/10/25 01:08:09;;;;;;;7.03;4.13;;;;;;;;;;5013355;28;20503;-51
2023/10/25 01:10:56;;;;;;;7.15;3.95;;;;;;;;;;5015384;28;20057;-61
2023/10/25 01:13:50;;;;;;;10.52;3.75;;;;;;;;;;5012555;28;20061;-58
2023/10/25 01:16:37;;;;;;;7.70;3.88;;;;;;;;;;5013484;28;20060;-59
2023/10/25 01:19:31;;;;;;;6.03;3.72;;;;;;;;;;5015536;28;20470;-59
2023/10/25 01:22:18;;;;;;;7.40;4.00;;;;;;;;;;5010349;28;20148;-60
2023/10/25 01:25:13;;;;;;;6.05;3.85;;;;;;;;;;5009468;28;20127;-59
2023/10/25 01:28:07;;;;;;;5.47;3.55;;;;;;;;;;5013713;28;20107;-64
2023/10/25 01:30:54;;;;;;;7.43;4.22;;;;;;;;;;5017165;28;20147;-63
2023/10/25 01:33:51;;;;;;;8.50;4.10;;;;;;;;;;5017080;28;20057;-63
2023/10/25 01:36:35;;;;;;;9.00;3.95;;;;;;;;;;5012005;28;20050;-63
2023/10/25 01:39:29;;;;;;;8.57;3.90;;;;;;;;;;5010013;28;20042;-63
2023/10/25 01:42:16;;;;;;;7.72;3.90;;;;;;;;;;5013285;28;20046;-63
2023/10/25 01:45:11;;;;;;;7.07;4.32;;;;;;;;;;5017493;28;20426;-63
2023/10/25 01:47:57;;;;;;;6.45;4.28;;;;;;;;;;5002603;28;20088;-54
2023/10/25 01:50:52;;;;;;;8.85;4.75;;;;;;;;;;5015518;28;20068;-62
2023/10/25 01:53:40;;;;;;;7.28;4.45;;;;;;;;;;5006791;28;20549;-62
2023/10/25 01:56:46;;;;;;;6.18;4.38;;;;;;;;;;5013392;28;20112;-62
2023/10/25 01:59:41;;;;;;;8.65;4.55;;;;;;;;;;5012329;28;20061;-62
2023/10/25 02:02:34;;;;;;;6.55;4.47;;;;;;;;;;5012034;28;20053;-63
2023/10/25 02:05:22;;;;;;;8.65;4.38;;;;;;;;;;5012075;28;20672;-64
2023/10/25 02:08:16;;;;;;;6.43;4.15;;;;;;;;;;5013413;28;20068;-51
2023/10/25 02:11:03;;;;;;;6.70;3.72;;;;;;;;;;5013307;28;20126;-52
2023/10/25 02:13:57;;;;;;;9.20;4.22;;;;;;;;;;5016565;28;20041;-47
2023/10/25 02:16:44;;;;;;;7.53;3.70;;;;;;;;;;5010618;28;20502;-49
2023/10/25 02:19:39;;;;;;;5.68;4.00;;;;;;;;;;5009834;28;20404;-51
2023/10/25 02:22:25;;;;;;;4.63;3.38;;;;;;;;;;5012287;28;20667;-53
2023/10/25 02:25:19;;;;;;;6.50;3.80;;;;;;;;;;5012960;28;20112;-50
2023/10/25 02:28:08;;;;;;;8.18;4.40;;;;;;;;;;5011049;28;20127;-60
2023/10/25 02:31:00;;;;;;;6.65;3.45;;;;;;;;;;5012105;28;20079;-61
2023/10/25 02:33:47;;;;;;;8.73;3.30;;;;;;;;;;5015076;28;20049;-61
2023/10/25 02:36:41;;;;;;;6.68;3.55;;;;;;;;;;5014569;28;20503;-61
2023/10/25 02:39:28;;;;;;;6.63;4.15;;;;;;;;;;5011283;28;20424;-61
2023/10/25 02:42:22;;;;;;;8.40;3.75;;;;;;;;;;5013698;28;20053;-63
2023/10/25 02:45:09;;;;;;;9.93;3.53;;;;;;;;;;5015827;28;20055;-49
2023/10/25 02:48:03;;;;;;;6.18;3.60;;;;;;;;;;5016971;28;20818;-52
2023/10/25 02:50:50;;;;;;;6.88;3.53;;;;;;;;;;5015244;28;20072;-48
2023/10/25 02:53:44;;;;;;;6.78;3.70;;;;;;;;;;5012964;28;20140;-50
2023/10/25 02:56:51;;;;;;;5.00;3.47;;;;;;;;;;5013911;28;20177;-51
2023/10/25 02:59:46;;;;;;;3.97;3.55;;;;;;;;;;5014556;28;20152;-53
2023/10/25 03:02:41;;;;;;;5.25;3.40;;;;;;;;;;5012798;28;20053;-60
2023/10/25 03:05:33;;;;;;;6.60;3.28;;;;;;;;;;5018762;28;20049;-65
2023/10/25 03:08:21;;;;;;;6.65;3.65;;;;;;;;;;5017893;28;20412;-64
2023/10/25 03:11:15;;;;;;;10.15;3.80;;;;;;;;;;5018063;28;20054;-64
2023/10/25 03:14:02;;;;;;;7.90;4.45;;;;;;;;;;5012092;28;20081;-64
2023/10/25 03:16:56;;;;;;;10.95;4.22;;;;;;;;;;5017530;28;20159;-66
2023/10/25 03:19:43;;;;;;;9.02;4.18;;;;;;;;;;5014570;28;20054;-51
2023/10/25 03:22:37;;;;;;;8.38;4.20;;;;;;;;;;5014653;28;20057;-63
2023/10/25 03:25:24;;;;;;;5.32;3.85;;;;;;;;;;5018207;28;20053;-63
2023/10/25 03:28:18;;;;;;;7.25;4.53;;;;;;;;;;5013261;28;20045;-63
2023/10/25 03:31:08;;;;;;;8.23;4.20;;;;;;;;;;5018702;28;20053;-63
2023/10/25 03:34:02;;;;;;;6.40;4.20;;;;;;;;;;5012737;28;20053;-63
2023/10/25 03:36:50;;;;;;;7.65;4.45;;;;;;;;;;5013351;28;20060;-53
2023/10/25 03:39:43;;;;;;;7.70;4.78;;;;;;;;;;5014908;28;20049;-51
2023/10/25 03:42:30;;;;;;;9.65;4.47;;;;;;;;;;5015645;28;20053;-63
2023/10/25 03:45:24;;;;;;;9.13;4.60;;;;;;;;;;5017442;28;20112;-63
2023/10/25 03:48:18;;;;;;;9.20;4.32;;;;;;;;;;5009297;28;20061;-63
2023/10/25 03:51:12;;;;;;;8.48;4.40;;;;;;;;;;5013321;28;20073;-62
2023/10/25 03:53:59;;;;;;;10.30;5.30;;;;;;;;;;5013251;28;20104;-62
2023/10/25 03:57:05;;;;;;;7.05;4.78;;;;;;;;;;5009213;28;20056;-63
2023/10/25 03:59:33;;;;;;;8.73;4.18;;;;;;;;;;5012093;28;20407;-56
2023/10/25 04:02:28;;;;;;;7.25;4.50;;;;;;;;;;5012240;28;20064;-58
2023/10/25 04:05:22;;;;;;;7.82;4.70;;;;;;;;;;5004137;28;20060;-57
2023/10/25 04:08:09;;;;;;;9.43;4.65;;;;;;;;;;5010697;28;20092;-57
2023/10/25 04:11:03;;;;;;;8.02;4.82;;;;;;;;;;5007174;28;20527;-56
2023/10/25 04:13:57;;;;;;;8.43;5.03;;;;;;;;;;5011293;28;20163;-64
2023/10/25 04:16:45;;;;;;;8.73;4.63;;;;;;;;;;5014292;28;20057;-64
2023/10/25 04:19:39;;;;;;;6.47;4.60;;;;;;;;;;5013102;28;20150;-65
2023/10/25 04:22:26;;;;;;;10.68;5.10;;;;;;;;;;5014815;28;20089;-65
2023/10/25 04:25:20;;;;;;;9.73;4.97;;;;;;;;;;5015947;28;20457;-64
2023/10/25 04:28:07;;;;;;;10.82;5.20;;;;;;;;;;5012721;28;20060;-64
2023/10/25 04:31:01;;;;;;;9.45;4.90;;;;;;;;;;5011448;28;20053;-66
2023/10/25 04:33:48;;;;;;;8.40;4.47;;;;;;;;;;5014561;28;20085;-53
2023/10/25 04:36:42;;;;;;;7.60;5.10;;;;;;;;;;5014634;28;20116;-53
2023/10/25 04:39:29;;;;;;;9.32;4.75;;;;;;;;;;5007752;28;20061;-49
2023/10/25 04:42:23;;;;;;;8.27;4.47;;;;;;;;;;5014646;28;20635;-53
2023/10/25 04:45:17;;;;;;;7.20;4.80;;;;;;;;;;5013508;28;20183;-51
2023/10/25 04:48:11;;;;;;;11.75;5.38;;;;;;;;;;5007788;28;20053;-50
2023/10/25 04:51:07;;;;;;;7.88;4.65;;;;;;;;;;5009068;28;20076;-58
2023/10/25 04:53:52;;;;;;;6.97;5.00;;;;;;;;;;5009060;28;20058;-62
2023/10/25 04:56:52;;;;;;;8.23;5.30;;;;;;;;;;5012457;28;20107;-62
2023/10/25 04:59:40;;;;;;;8.80;5.45;;;;;;;;;;5008023;28;20542;-62
2023/10/25 05:02:40;;;;;;;10.48;4.93;;;;;;;;;;5018505;28;20045;-62
2023/10/25 05:05:32;;;;;;;11.48;5.38;;;;;;;;;;5015990;28;20050;-62
2023/10/25 05:08:25;;;;;;;12.10;5.88;;;;;;;;;;5014316;28;20053;-66
2023/10/25 05:11:19;;;;;;;7.93;5.20;;;;;;;;;;5011868;28;20473;-57
2023/10/25 05:14:06;;;;;;;9.90;5.50;;;;;;;;;;5015289;28;20102;-49
2023/10/25 05:17:05;;;;;;;9.13;5.35;;;;;;;;;;5012392;28;20054;-49
2023/10/25 05:19:51;;;;;;;8.93;5.88;;;;;;;;;;5016053;28;20069;-54
2023/10/25 05:22:49;;;;;;;11.55;5.90;;;;;;;;;;5014007;28;20476;-51
2023/10/25 05:25:37;;;;;;;11.35;5.32;;;;;;;;;;5014010;28;20626;-47
2023/10/25 05:28:31;;;;;;;8.68;5.22;;;;;;;;;;5016258;28;20174;-53
2023/10/25 05:31:20;;;;;;;11.00;5.80;;;;;;;;;;5019017;28;20053;-64
2023/10/25 05:34:14;;;;;;;17.10;5.82;;;;;;;;;;5017809;28;20065;-62
2023/10/25 05:37:01;;;;;;;9.43;5.88;;;;;;;;;;5020230;28;20049;-62
2023/10/25 05:39:56;;;;;;;11.35;5.35;;;;;;;;;;5015020;28;20510;-62
2023/10/25 05:42:48;;;;;;;11.15;5.72;;;;;;;;;;5017927;28;20499;-62
2023/10/25 05:45:42;;;;;;;12.02;5.60;;;;;;;;;;5014701;28;20059;-62
2023/10/25 05:48:29;;;;;;;9.50;5.25;;;;;;;;;;5015987;28;20512;-50
2023/10/25 05:51:23;;;;;;;8.43;5.38;;;;;;;;;;5014902;28;20491;-60
2023/10/25 05:54:10;;;;;;;10.57;5.75;;;;;;;;;;5014094;28;20518;-61
2023/10/25 05:57:11;;;;;;;12.38;5.28;;;;;;;;;;5018843;28;20054;-60
2023/10/25 05:59:59;;;;;;;11.50;5.45;;;;;;;;;;5018297;28;20053;-60
2023/10/25 06:02:56;;;;;;;10.82;6.38;;;;;;;;;;5016232;28;20605;-60
2023/10/25 06:05:44;;;;;;;12.77;5.88;;;;;;;;;;5017777;28;20132;-65
2023/10/25 06:08:38;;;;;;;12.02;5.63;;;;;;;;;;5014849;28;20088;-51
2023/10/25 06:11:25;;;;;;;9.05;5.32;;;;;;;;;;5017618;28;20049;-54
2023/10/25 06:14:19;;;;;;;14.90;5.78;;;;;;;;;;5016005;28;20500;-50
2023/10/25 06:17:06;;;;;;;10.70;5.93;;;;;;;;;;5014181;28;20064;-54
2023/10/25 06:20:01;;;;;;;10.82;5.97;;;;;;;;;;5017858;28;20058;-47
2023/10/25 06:22:48;;;;;;;11.88;6.00;;;;;;;;;;5017183;28;20503;-64
2023/10/25 06:25:42;;;;;;;9.65;5.40;;;;;;;;;;5017530;28;21752;-61
2023/10/25 06:28:29;;;;;;;11.98;6.18;;;;;;;;;;5017573;28;20135;-62
2023/10/25 06:31:23;;;;;;;7.05;5.07;;;;;;;;;;5018413;28;20057;-62
2023/10/25 06:34:10;;;;;;;7.70;5.60;;;;;;;;;;5015754;28;20053;-62
2023/10/25 06:37:04;;;;;;;10.20;5.88;;;;;;;;;;5018557;28;20072;-62
2023/10/25 06:39:58;;;;;;;8.07;4.57;;;;;;;;;;5013835;28;20153;-62
2023/10/25 06:42:55;;;;;;;9.75;6.28;;;;;;;;;;5015659;28;20054;-61
2023/10/25 06:45:49;;;;;;;12.05;6.05;;;;;;;;;;5017257;28;20049;-52
2023/10/25 06:48:37;;;;;;;8.77;6.32;;;;;;;;;;5013815;28;20108;-55
2023/10/25 06:51:31;;;;;;;12.88;6.05;;;;;;;;;;5010844;28;20148;-55
2023/10/25 06:54:18;;;;;;;11.95;6.32;;;;;;;;;;5014443;28;20579;-58
2023/10/25 06:57:25;;;;;;;9.68;6.10;;;;;;;;;;5017096;28;20049;-56
2023/10/25 07:00:22;;;;;;;10.45;6.20;;;;;;;;;;5016033;28;20063;-58
2023/10/25 07:03:14;;;;;;;9.10;6.07;;;;;;;;;;5017469;28;20063;-53
2023/10/25 07:06:03;;;;;;;9.95;6.15;;;;;;;;;;5015664;28;20080;-57
2023/10/25 07:08:56;;;;;;;12.65;5.72;;;;;;;;;;5016209;28;20049;-58
2023/10/25 07:11:43;;;;;;;11.93;6.03;;;;;;;;;;5011390;28;20153;-58
2023/10/25 07:14:37;;;;;;;9.80;5.85;;;;;;;;;;5013902;28;20560;-58
2023/10/25 07:17:27;;;;;;;10.70;5.45;;;;;;;;;;5015565;28;20050;-63
2023/10/25 07:20:18;;;;;;;9.85;5.97;;;;;;;;;;5013989;28;20053;-62
2023/10/25 07:23:06;;;;;;;8.77;5.32;;;;;;;;;;5015734;28;20080;-52
2023/10/25 07:25:59;;;;;;;10.60;5.57;;;;;;;;;;5013279;28;20061;-49
2023/10/25 07:28:53;;;;;;;10.23;6.32;;;;;;;;;;5018319;28;20154;-49
2023/10/25 07:31:47;;;;;;;13.82;6.60;;;;;;;;;;5016935;28;20107;-49
2023/10/25 07:34:35;;;;;;;9.35;5.90;;;;;;;;;;5019255;28;20056;-50
2023/10/25 07:37:29;;;;;;;9.65;6.47;;;;;;;;;;5017439;28;20063;-49
2023/10/25 07:40:16;;;;;;;14.30;7.13;;;;;;;;;;5016226;28;21533;-54
2023/10/25 07:43:10;;;;;;;9.93;5.95;;;;;;;;;;5017860;28;20056;-56
2023/10/25 07:46:04;;;;;;;9.75;6.28;;;;;;;;;;5017553;28;20182;-60
2023/10/25 07:48:51;;;;;;;9.75;6.30;;;;;;;;;;5019423;28;20053;-55
2023/10/25 07:51:45;;;;;;;8.65;5.80;;;;;;;;;;5014022;28;20451;-55
2023/10/25 07:54:32;;;;;;;10.68;6.28;;;;;;;;;;5017763;28;20140;-51
2023/10/25 07:57:38;;;;;;;12.95;6.15;;;;;;;;;;5017442;28;20084;-64
2023/10/25 08:00:36;;;;;;;10.05;6.25;;;;;;;;;;5018247;28;20146;-64
2023/10/25 08:03:30;;;;;;;15.93;6.85;;;;;;;;;;5017043;28;20049;-65
2023/10/25 08:06:17;;;;;;;11.10;6.90;;;;;;;;;;5021615;28;20057;-64
2023/10/25 08:09:11;;;;;;;11.05;6.75;;;;;;;;;;5016118;28;20466;-64
2023/10/25 08:11:58;;;;;;;11.10;6.35;;;;;;;;;;5022607;28;20075;-64
2023/10/25 08:14:52;;;;;;;10.95;6.43;;;;;;;;;;5015695;28;20111;-51
2023/10/25 08:17:46;;;;;;;10.88;6.00;;;;;;;;;;5018369;28;20073;-47
2023/10/25 08:20:40;;;;;;;10.73;6.93;;;;;;;;;;5016917;28;20061;-49
2023/10/25 08:23:28;;;;;;;12.23;7.60;;;;;;;;;;5012577;28;20392;-48
2023/10/25 08:26:25;;;;;;;11.02;6.47;;;;;;;;;;5015777;28;20115;-52
2023/10/25 08:29:16;;;;;;;14.10;7.00;;;;;;;;;;5016285;28;20275;-48
2023/10/25 08:32:12;;;;;;;12.57;7.45;;;;;;;;;;5017279;28;20045;-57
2023/10/25 08:35:06;;;;;;;15.80;7.60;;;;;;;;;;5020014;28;20077;-58
2023/10/25 08:37:52;;;;;;;13.27;7.90;;;;;;;;;;5015454;28;20053;-57
2023/10/25 08:40:46;;;;;;;11.57;6.80;;;;;;;;;;5018462;28;20431;-57
2023/10/25 08:43:34;;;;;;;11.85;6.97;;;;;;;;;;5017883;28;20053;-58
2023/10/25 08:46:29;;;;;;;16.65;7.20;;;;;;;;;;5018584;28;20907;-58
2023/10/25 08:49:22;;;;;;;14.68;7.57;;;;;;;;;;5015718;28;20498;-61
2023/10/25 08:52:21;;;;;;;12.50;7.57;;;;;;;;;;5013899;28;20107;-57
2023/10/25 08:55:12;;;;;;;13.63;7.68;;;;;;;;;;5019124;28;20108;-59
2023/10/25 08:58:13;;;;;;;15.15;8.07;;;;;;;;;;5016964;28;20063;-60
2023/10/25 09:01:06;;;;;;;12.95;7.95;;;;;;;;;;5017572;28;20056;-60
2023/10/25 09:04:07;;;;;;;14.38;7.72;;;;;;;;;;5017382;28;20049;-60
2023/10/25 09:06:53;;;;;;;13.98;7.80;;;;;;;;;;5018127;28;20132;-60
2023/10/25 09:09:47;;;;;;;13.38;7.60;;;;;;;;;;5013736;28;20465;-62
2023/10/25 09:12:34;;;;;;;14.52;7.93;;;;;;;;;;5014684;28;20053;-63
2023/10/25 09:15:31;;;;;;;12.15;7.25;;;;;;;;;;5014431;28;20426;-63
2023/10/25 09:18:18;;;;;;;16.60;7.95;;;;;;;;;;5013173;28;20053;-63
2023/10/25 09:21:12;;;;;;;12.13;8.02;;;;;;;;;;5016169;28;20065;-62
2023/10/25 09:24:02;;;;;;;13.77;7.20;;;;;;;;;;5014627;28;20119;-62
2023/10/25 09:26:55;;;;;;;16.27;7.97;;;;;;;;;;5015860;28;20053;-51
2023/10/25 09:29:40;;;;;;;13.50;8.32;;;;;;;;;;5015614;28;20050;-60
2023/10/25 09:32:49;;;;;;;13.43;7.93;;;;;;;;;;5017115;28;20066;-60
2023/10/25 09:35:37;;;;;;;16.30;8.23;;;;;;;;;;5014845;28;20419;-60
2023/10/25 09:38:31;;;;;;;12.55;7.75;;;;;;;;;;5017186;28;20103;-60
2023/10/25 09:41:28;;;;;;;13.25;7.78;;;;;;;;;;5014987;28;20127;-60
2023/10/25 09:44:18;;;;;;;13.52;7.57;;;;;;;;;;5016027;28;20042;-65
2023/10/25 09:47:11;;;;;;;12.75;7.72;;;;;;;;;;5017401;28;20083;-65
2023/10/25 09:50:03;;;;;;;13.15;7.93;;;;;;;;;;5016082;28;20112;-59
2023/10/25 09:53:09;;;;;;;13.00;8.02;;;;;;;;;;4997665;28;20060;-59
2023/10/25 09:56:05;;;;;;;14.52;8.20;;;;;;;;;;5015617;28;23450;-57
2023/10/25 09:59:08;;;;;;;14.07;8.27;;;;;;;;;;5014628;28;20068;-58
2023/10/25 10:01:55;;;;;;;14.00;7.68;;;;;;;;;;5011452;28;20073;-59
2023/10/25 10:05:00;;;;;;;14.07;7.85;;;;;;;;;;5012437;28;20049;-62
2023/10/25 10:07:53;;;;;;;10.68;7.55;;;;;;;;;;5016187;28;20350;-65
2023/10/25 10:10:52;;;;;;;13.10;7.10;;;;;;;;;;5013858;28;20485;-66
2023/10/25 10:13:39;;;;;;;13.35;8.60;;;;;;;;;;5015661;28;20050;-66
2023/10/25 10:16:33;;;;;;;15.88;8.77;;;;;;;;;;5015351;28;20054;-65
2023/10/25 10:19:21;;;;;;;12.13;7.35;;;;;;;;;;5017627;28;20068;-64
2023/10/25 10:22:16;;;;;;;13.50;6.88;;;;;;;;;;5009214;28;20057;-62
2023/10/25 10:25:04;;;;;;;11.82;7.22;;;;;;;;;;5014151;28;20049;-53
2023/10/25 10:28:03;;;;;;;11.10;7.22;;;;;;;;;;5017443;28;20046;-54
2023/10/25 10:30:53;;;;;;;13.60;7.32;;;;;;;;;;5016694;28;20514;-53
2023/10/25 10:33:46;;;;;;;10.57;7.00;;;;;;;;;;5016375;28;20127;-50
2023/10/25 10:36:33;;;;;;;14.00;8.25;;;;;;;;;;5013164;28;20077;-54
2023/10/25 10:39:27;;;;;;;13.68;7.53;;;;;;;;;;5012834;28;20140;-48
2023/10/25 10:42:18;;;;;;;10.82;6.80;;;;;;;;;;5009173;28;20045;-60
2023/10/25 10:45:14;;;;;;;13.68;7.88;;;;;;;;;;5018726;28;20077;-60
2023/10/25 10:48:13;;;;;;;10.38;7.13;;;;;;;;;;5014738;28;21849;-61
2023/10/25 10:51:06;;;;;;;17.20;6.95;;;;;;;;;;5016946;28;20525;-60
2023/10/25 10:53:54;;;;;;;14.63;7.18;;;;;;;;;;5012722;28;20053;-60
2023/10/25 10:56:55;;;;;;;10.55;7.38;;;;;;;;;;5011159;28;20294;-60
2023/10/25 10:59:49;;;;;;;11.00;6.55;;;;;;;;;;5016879;28;20073;-57
2023/10/25 11:02:51;;;;;;;10.55;7.20;;;;;;;;;;5014657;28;20115;-47
2023/10/25 11:05:39;;;;;;;11.80;7.30;;;;;;;;;;5019575;28;20508;-53
2023/10/25 11:08:33;;;;;;;12.65;7.03;;;;;;;;;;5018326;28;20483;-51
2023/10/25 11:11:21;;;;;;;13.10;7.65;;;;;;;;;;5020275;28;20365;-52
2023/10/25 11:14:16;;;;;;;11.98;7.20;;;;;;;;;;5017919;28;20136;-48
2023/10/25 11:17:10;;;;;;;10.88;6.35;;;;;;;;;;5015591;28;20053;-60
2023/10/25 11:20:05;;;;;;;12.35;6.75;;;;;;;;;;5015181;28;20062;-51
2023/10/25 11:22:52;;;;;;;11.65;7.35;;;;;;;;;;5019743;28;20422;-48
2023/10/25 11:25:46;;;;;;;12.18;7.25;;;;;;;;;;5020207;28;20522;-49
2023/10/25 11:28:33;;;;;;;13.55;7.50;;;;;;;;;;5017617;28;20057;-51
2023/10/25 11:31:31;;;;;;;10.90;6.65;;;;;;;;;;5014290;28;20058;-50
2023/10/25 11:34:21;;;;;;;13.05;6.95;;;;;;;;;;5018323;28;20148;-48
2023/10/25 11:37:15;;;;;;;12.05;6.90;;;;;;;;;;5021173;28;20049;-57
2023/10/25 11:40:02;;;;;;;13.95;7.28;;;;;;;;;;5018555;28;20056;-62
2023/10/25 11:42:57;;;;;;;12.25;7.05;;;;;;;;;;5020494;28;20053;-62
2023/10/25 11:45:46;;;;;;;11.43;6.83;;;;;;;;;;5017141;28;20041;-62
2023/10/25 11:48:39;;;;;;;11.45;6.88;;;;;;;;;;5019252;28;20049;-62
2023/10/25 11:51:26;;;;;;;9.88;6.28;;;;;;;;;;5016479;28;20770;-62
2023/10/25 11:54:20;;;;;;;12.98;7.30;;;;;;;;;;5017885;28;20054;-46
2023/10/25 11:57:21;;;;;;;10.77;6.50;;;;;;;;;;5015569;28;20849;-62
2023/10/25 12:00:15;;;;;;;13.32;7.30;;;;;;;;;;5013005;28;20724;-62
2023/10/25 12:03:09;;;;;;;11.40;6.60;;;;;;;;;;5017374;28;20049;-62
2023/10/25 12:05:56;;;;;;;12.23;6.75;;;;;;;;;;5018787;28;20091;-62
2023/10/25 12:08:50;;;;;;;9.60;6.43;;;;;;;;;;5016282;28;20424;-63
2023/10/25 12:11:44;;;;;;;12.02;6.53;;;;;;;;;;5019573;28;20134;-49
2023/10/25 12:14:38;;;;;;;10.80;7.07;;;;;;;;;;5014167;28;20116;-53
2023/10/25 12:17:25;;;;;;;9.93;6.13;;;;;;;;;;5017716;28;20049;-52
2023/10/25 12:20:19;;;;;;;13.32;6.22;;;;;;;;;;5012158;28;20069;-50
2023/10/25 12:23:06;;;;;;;8.75;5.95;;;;;;;;;;5021753;28;20053;-50
2023/10/25 12:26:00;;;;;;;9.60;6.47;;;;;;;;;;5018136;28;20058;-51
2023/10/25 12:28:47;;;;;;;12.98;6.68;;;;;;;;;;5019978;28;20054;-47
2023/10/25 12:31:41;;;;;;;12.32;6.50;;;;;;;;;;5016916;28;20069;-62
2023/10/25 12:34:28;;;;;;;10.10;6.13;;;;;;;;;;5012510;28;20671;-49
2023/10/25 12:37:23;;;;;;;8.70;5.72;;;;;;;;;;5020027;28;20144;-53
2023/10/25 12:40:09;;;;;;;11.43;6.45;;;;;;;;;;5017757;28;20139;-48
2023/10/25 12:43:03;;;;;;;14.55;6.32;;;;;;;;;;5015105;28;20053;-48
2023/10/25 12:45:50;;;;;;;11.57;6.38;;;;;;;;;;5019491;28;20049;-47
2023/10/25 12:48:44;;;;;;;9.52;5.88;;;;;;;;;;5014114;28;20056;-57
2023/10/25 12:51:31;;;;;;;9.15;6.40;;;;;;;;;;5008226;28;20177;-65
2023/10/25 12:54:25;;;;;;;9.50;6.13;;;;;;;;;;5012511;28;20513;-64
2023/10/25 12:57:18;;;;;;;8.88;5.80;;;;;;;;;;5016190;28;20049;-64
2023/10/25 13:00:12;;;;;;;9.98;5.43;;;;;;;;;;5013077;28;20111;-65
2023/10/25 13:02:59;;;;;;;10.30;5.28;;;;;;;;;;5015511;28;20531;-64
2023/10/25 13:05:53;;;;;;;8.77;5.57;;;;;;;;;;5018445;28;20057;-64
2023/10/25 13:08:41;;;;;;;11.30;5.93;;;;;;;;;;5014816;28;20159;-53
2023/10/25 13:11:35;;;;;;;10.85;5.80;;;;;;;;;;5018000;28;20065;-60
2023/10/25 13:14:21;;;;;;;10.07;6.10;;;;;;;;;;5014862;28;20050;-60
2023/10/25 13:17:15;;;;;;;10.23;5.32;;;;;;;;;;5020154;28;20141;-59
2023/10/25 13:20:02;;;;;;;9.85;6.10;;;;;;;;;;5013633;28;20096;-59
2023/10/25 13:22:58;;;;;;;9.95;6.25;;;;;;;;;;5018518;28;20064;-59
2023/10/25 13:25:43;;;;;;;10.93;5.93;;;;;;;;;;5008288;28;20049;-64
2023/10/25 13:28:37;;;;;;;9.18;5.40;;;;;;;;;;5017114;28;20049;-60
2023/10/25 13:31:24;;;;;;;11.90;6.07;;;;;;;;;;5017222;28;20050;-61
2023/10/25 13:34:18;;;;;;;9.95;6.22;;;;;;;;;;5016212;28;20107;-60
2023/10/25 13:37:12;;;;;;;9.73;5.68;;;;;;;;;;5018245;28;20081;-60
2023/10/25 13:40:07;;;;;;;10.57;6.20;;;;;;;;;;5014089;28;20054;-59
2023/10/25 13:42:54;;;;;;;9.05;5.30;;;;;;;;;;5014610;28;20916;-60
2023/10/25 13:45:48;;;;;;;10.07;5.68;;;;;;;;;;5016929;28;20045;-65
2023/10/25 13:48:35;;;;;;;10.95;6.30;;;;;;;;;;5016672;28;20064;-62
2023/10/25 13:51:29;;;;;;;10.07;6.30;;;;;;;;;;5014547;28;20053;-64
2023/10/25 13:54:16;;;;;;;11.15;6.53;;;;;;;;;;5009325;28;20049;-64
2023/10/25 13:57:17;;;;;;;13.23;6.03;;;;;;;;;;5010370;28;20050;-63
2023/10/25 14:00:11;;;;;;;10.88;6.15;;;;;;;;;;5011557;28;20045;-63
2023/10/25 14:03:05;;;;;;;10.98;6.18;;;;;;;;;;5016182;28;20053;-64
2023/10/25 14:05:52;;;;;;;9.35;6.20;;;;;;;;;;5018870;28;20112;-50
2023/10/25 14:08:46;;;;;;;9.07;5.93;;;;;;;;;;5013050;28;20376;-50
2023/10/25 14:11:33;;;;;;;12.90;5.60;;;;;;;;;;5013055;28;20047;-52
2023/10/25 14:14:27;;;;;;;9.65;5.50;;;;;;;;;;5015027;28;20057;-48
2023/10/25 14:17:29;;;;;;;8.95;5.15;;;;;;;;;;5012420;28;20053;-48
2023/10/25 14:20:30;;;;;;;8.50;5.32;;;;;;;;;;5016096;28;20115;-60
2023/10/25 14:23:18;;;;;;;10.80;5.50;;;;;;;;;;5017698;28;20565;-65
2023/10/25 14:26:11;;;;;;;10.02;5.40;;;;;;;;;;5012411;28;20073;-65
2023/10/25 14:28:58;;;;;;;9.65;5.40;;;;;;;;;;5018097;28;20049;-65
2023/10/25 14:31:52;;;;;;;7.90;5.07;;;;;;;;;;5014569;28;20123;-66
2023/10/25 14:34:39;;;;;;;10.30;5.30;;;;;;;;;;5014632;28;20111;-65
2023/10/25 14:37:33;;;;;;;7.63;5.03;;;;;;;;;;5019479;28;20541;-66
2023/10/25 14:40:20;;;;;;;6.07;4.07;;;;;;;;;;5015256;28;20050;-60
2023/10/25 14:42:58;;;;;;;11.18;4.90;;;;;;;;;;5012367;28;20519;-61
2023/10/25 14:45:45;;;;;;;13.82;5.78;;;;;;;;;;5011745;28;20049;-61
2023/10/25 14:48:38;;;;;;;12.15;5.28;;;;;;;;;;5010509;28;20124;-61
2023/10/25 14:51:35;;;;;;;8.35;4.53;;;;;;;;;;5009627;28;20046;-61
2023/10/25 14:54:23;;;;;;;7.15;4.45;;;;;;;;;;5014511;28;20049;-61
2023/10/25 14:57:23;;;;;;;9.00;4.75;;;;;;;;;;5013118;28;20045;-48
2023/10/25 15:00:17;;;;;;;7.05;4.70;;;;;;;;;;5010436;28;20135;-57
2023/10/25 15:03:11;;;;;;;12.85;4.65;;;;;;;;;;5008401;28;20057;-55
2023/10/25 15:05:58;;;;;;;10.88;5.18;;;;;;;;;;5010224;28;20171;-56
2023/10/25 15:08:53;;;;;;;10.27;4.55;;;;;;;;;;5014388;28;20057;-57
2023/10/25 15:11:40;;;;;;;10.32;4.72;;;;;;;;;;5009045;28;20049;-51
2023/10/25 15:14:34;;;;;;;12.38;5.35;;;;;;;;;;5012223;28;20522;-51
2023/10/25 15:17:21;;;;;;;10.05;5.20;;;;;;;;;;5014343;28;20057;-54
2023/10/25 15:19:55;;;;;;;9.90;5.50;;;;;;;;;;5010806;28;20049;-64
2023/10/25 15:22:29;;;;;;;9.00;4.32;;;;;;;;;;5013981;28;20081;-63
2023/10/25 15:24:56;;;;;;;6.80;4.43;;;;;;;;;;5008220;28;20997;-63
2023/10/25 15:27:51;;;;;;;10.05;5.00;;;;;;;;;;5007985;28;20054;-63
2023/10/25 15:30:38;;;;;;;9.13;5.22;;;;;;;;;;5010540;28;20057;-64
2023/10/25 15:33:31;;;;;;;10.55;5.00;;;;;;;;;;5012703;28;20451;-66
2023/10/25 15:36:19;;;;;;;8.82;4.93;;;;;;;;;;5012733;28;20053;-64
2023/10/25 15:39:13;;;;;;;11.73;5.57;;;;;;;;;;5012455;28;20046;-54
2023/10/25 15:42:00;;;;;;;9.43;5.30;;;;;;;;;;5007897;28;20057;-54
2023/10/25 15:44:54;;;;;;;12.25;6.43;;;;;;;;;;5011113;28;20057;-53
2023/10/25 15:47:42;;;;;;;10.13;5.80;;;;;;;;;;5010000;28;20556;-51
2023/10/25 15:50:36;;;;;;;10.55;6.03;;;;;;;;;;5019681;28;20050;-53
2023/10/25 15:53:23;;;;;;;13.07;5.13;;;;;;;;;;5015201;28;20064;-63
2023/10/25 15:56:17;;;;;;;11.90;5.95;;;;;;;;;;5009163;28;20524;-60
2023/10/25 15:59:11;;;;;;;11.82;6.03;;;;;;;;;;5007543;28;20664;-59
2023/10/25 16:02:05;;;;;;;12.65;5.40;;;;;;;;;;5010812;28;20057;-59
2023/10/25 16:04:52;;;;;;;15.02;6.78;;;;;;;;;;5008665;28;20138;-60
2023/10/25 16:07:47;;;;;;;15.70;5.72;;;;;;;;;;5007773;28;20515;-60
2023/10/25 16:10:41;;;;;;;19.10;6.97;;;;;;;;;;5009479;28;20492;-66
2023/10/25 16:13:28;;;;;;;11.40;5.38;;;;;;;;;;5012757;28;20053;-53
2023/10/25 16:16:22;;;;;;;11.20;5.95;;;;;;;;;;5013003;28;20068;-58
2023/10/25 16:19:09;;;;;;;10.82;6.20;;;;;;;;;;5010591;28;20144;-59
2023/10/25 16:22:04;;;;;;;11.15;5.97;;;;;;;;;;5009328;28;20119;-59
2023/10/25 16:24:50;;;;;;;16.80;6.40;;;;;;;;;;5005606;28;20069;-59
2023/10/25 16:27:44;;;;;;;14.20;5.85;;;;;;;;;;5013636;28;20053;-59
2023/10/25 16:30:38;;;;;;;12.68;6.38;;;;;;;;;;5012815;28;20065;-60
2023/10/25 16:33:25;;;;;;;12.45;6.93;;;;;;;;;;5009007;28;20050;-54
2023/10/25 16:36:21;;;;;;;13.25;6.88;;;;;;;;;;5011903;28;20056;-51
2023/10/25 16:39:19;;;;;;;12.85;6.25;;;;;;;;;;5006919;28;20284;-53
2023/10/25 16:42:15;;;;;;;12.23;6.35;;;;;;;;;;5004908;28;20072;-55
2023/10/25 16:44:42;;;;;;;10.60;6.38;;;;;;;;;;5006025;28;20053;-56
2023/10/25 16:47:36;;;;;;;13.52;6.22;;;;;;;;;;5013384;28;20050;-64
2023/10/25 16:50:26;;;;;;;13.02;6.70;;;;;;;;;;5002397;28;20084;-64
2023/10/25 16:53:20;;;;;;;12.27;6.53;;;;;;;;;;5012313;28;20604;-64
2023/10/25 16:56:08;;;;;;;12.68;6.57;;;;;;;;;;5009752;28;20144;-65
2023/10/25 16:59:09;;;;;;;16.70;6.72;;;;;;;;;;5005916;28;20060;-64
2023/10/25 17:01:56;;;;;;;12.57;7.53;;;;;;;;;;5009387;28;20472;-64